Time;durP1;ratioP1;P1;durP2;ratioP2;P2;SDS_P1;SDS_P2;PMS_P1;PMS_P2;Temp;Humidity;BMP_temperature;BMP_pressure;BME280_temperature;BME280_humidity;BME280_pressure;Samples;Min_cycle;Max_cycle;Signal;HPM_P1;HPM_P2
2022/04/26 03:37:12;;;;;;;16.40;7.05;;;;;;;12.71;58.40;99717.59;5116200;28;20035;-81
2022/04/26 03:39:39;;;;;;;12.85;6.50;;;;;;;12.85;58.04;99711.94;5115876;28;20047;-81
2022/04/26 03:42:06;;;;;;;19.70;9.70;;;;;;;12.93;57.80;99708.59;5116403;28;20040;-81
2022/04/26 03:44:32;;;;;;;12.95;5.68;;;;;;;12.93;57.56;99700.53;5097889;28;20397;-80
2022/04/26 03:46:59;;;;;;;9.48;6.15;;;;;;;13.09;57.65;99708.19;5080664;28;20520;-82
2022/04/26 03:49:25;;;;;;;10.73;5.57;;;;;;;13.22;57.67;99708.81;5080919;28;20100;-86
2022/04/26 03:51:54;;;;;;;13.25;6.13;;;;;;;13.33;57.52;99706.09;5097606;28;20502;-78
2022/04/26 03:54:21;;;;;;;13.40;6.10;;;;;;;13.47;56.81;99706.78;5097135;28;20047;-78
2022/04/26 03:56:48;;;;;;;12.18;6.78;;;;;;;13.63;57.29;99701.75;5064062;28;20047;-80
2022/04/26 03:59:15;;;;;;;10.95;6.47;;;;;;;13.78;56.88;99695.03;5114536;28;20518;-79
2022/04/26 04:01:41;;;;;;;13.77;6.85;;;;;;;13.84;57.14;99702.59;5129520;27;20046;-81
2022/04/26 04:04:07;;;;;;;14.00;6.88;;;;;;;14.01;56.60;99706.44;5117555;27;20047;-77
2022/04/26 04:06:33;;;;;;;9.02;6.82;;;;;;;14.19;55.94;99709.34;5117910;27;20080;-76
2022/04/26 04:08:59;;;;;;;18.90;7.65;;;;;;;14.14;55.72;99706.22;5115159;27;20082;-77
2022/04/26 04:11:25;;;;;;;11.02;6.97;;;;;;;14.19;55.88;99714.72;5079913;28;20124;-86
2022/04/26 04:13:51;;;;;;;10.82;6.35;;;;;;;14.28;56.12;99700.44;5097137;28;20499;-84
2022/04/26 04:16:17;;;;;;;16.55;7.15;;;;;;;14.46;55.76;99708.69;5063569;28;20043;-83
2022/04/26 04:21:28;;;;;;;17.02;8.50;;;;;;;14.70;55.37;99708.34;5099323;28;20044;-83
2022/04/26 04:23:54;;;;;;;14.50;7.00;;;;;;;14.72;55.67;99709.06;5097589;28;20036;-88
2022/04/26 04:26:19;;;;;;;16.27;7.72;;;;;;;14.69;55.53;99712.03;5097931;28;20130;-91
2022/04/26 04:28:45;;;;;;;13.32;6.85;;;;;;;14.70;55.40;99713.72;5064370;28;20078;-85
2022/04/26 04:31:12;;;;;;;9.82;5.75;;;;;;;14.71;55.35;99706.53;5080045;28;20092;-82
2022/04/26 04:33:39;;;;;;;19.08;6.00;;;;;;;14.73;55.51;99702.69;5096824;28;20040;-83
2022/04/26 04:36:05;;;;;;;9.80;5.70;;;;;;;14.80;55.71;99709.19;5115423;28;20040;-81
2022/04/26 04:38:32;;;;;;;13.50;6.38;;;;;;;14.62;55.94;99710.88;5064585;28;20565;-80
2022/04/26 04:40:58;;;;;;;9.43;6.30;;;;;;;14.54;56.20;99708.03;5114935;28;20051;-85
2022/04/26 04:43:25;;;;;;;17.05;6.50;;;;;;;14.75;56.21;99705.25;5080184;28;20393;-81
2022/04/26 04:45:50;;;;;;;16.08;6.72;;;;;;;14.85;56.08;99713.31;5096484;28;20402;-85
2022/04/26 04:48:17;;;;;;;11.75;6.32;;;;;;;14.89;56.39;99703.97;5079462;28;20043;-83
2022/04/26 04:50:44;;;;;;;13.32;6.57;;;;;;;15.12;55.57;99721.53;5096460;28;20087;-86
2022/04/26 04:53:10;;;;;;;11.95;5.50;;;;;;;15.13;55.73;99715.16;5062706;28;20138;-82
2022/04/26 04:55:38;;;;;;;17.85;5.43;;;;;;;15.40;55.76;99722.50;5096250;28;20051;-83
2022/04/26 04:58:04;;;;;;;19.37;6.13;;;;;;;15.66;55.58;99721.91;5096364;28;20036;-89
2022/04/26 05:00:30;;;;;;;13.52;5.22;;;;;;;15.98;55.03;99718.81;5079776;28;20341;-82
2022/04/26 05:02:56;;;;;;;19.63;5.85;;;;;;;16.05;54.53;99722.59;5114428;28;20147;-82
2022/04/26 05:05:23;;;;;;;14.55;4.88;;;;;;;16.17;53.94;99720.56;5096555;28;20042;-87
2022/04/26 05:07:52;;;;;;;7.70;4.82;;;;;;;16.31;53.93;99727.31;5062698;28;20123;-85
2022/04/26 05:10:18;;;;;;;8.10;3.25;;;;;;;16.21;54.21;99717.44;5079088;28;20047;-86
2022/04/26 05:12:44;;;;;;;4.20;3.38;;;;;;;16.19;54.04;99732.91;5062660;28;20406;-86
2022/04/26 05:15:10;;;;;;;5.35;3.00;;;;;;;16.11;54.05;99727.41;5114124;28;20040;-83
2022/04/26 05:17:36;;;;;;;5.60;3.13;;;;;;;16.00;53.98;99733.84;5079420;28;20451;-91
2022/04/26 05:20:04;;;;;;;7.43;3.55;;;;;;;16.08;53.97;99735.81;5062185;28;20145;-81
2022/04/26 05:22:30;;;;;;;8.65;3.53;;;;;;;16.19;53.62;99735.59;5078664;28;20035;-85
2022/04/26 05:24:58;;;;;;;15.25;4.20;;;;;;;16.24;53.28;99738.69;5061845;28;20039;-82
2022/04/26 05:27:31;;;;;;;11.25;4.90;;;;;;;16.10;53.46;99736.50;5095342;28;20035;-85
2022/04/26 05:29:58;;;;;;;8.65;5.68;;;;;;;16.13;54.02;99725.41;5078932;28;20051;-83
2022/04/26 05:32:27;;;;;;;9.55;6.13;;;;;;;16.38;53.54;99740.06;5079384;28;20040;-79
2022/04/26 05:35:11;;;;;;;10.88;5.80;;;;;;;16.44;53.02;99734.06;5113671;28;20043;-84
2022/04/26 05:37:40;;;;;;;7.05;5.78;;;;;;;16.47;52.96;99739.19;5096321;28;20066;-83
2022/04/26 05:40:06;;;;;;;11.10;4.63;;;;;;;16.40;52.94;99756.13;5095729;28;20135;-82
2022/04/26 05:42:36;;;;;;;8.50;3.90;;;;;;;16.39;52.92;99755.25;5095536;28;20043;-82
2022/04/26 05:45:02;;;;;;;4.80;3.10;;;;;;;16.31;53.10;99748.91;5113590;28;20047;-83
2022/04/26 05:47:30;;;;;;;7.90;2.87;;;;;;;16.14;53.30;99754.09;5095731;28;20047;-82
2022/04/26 05:49:56;;;;;;;6.30;3.10;;;;;;;16.17;53.14;99756.50;5113666;28;20179;-82
2022/04/26 05:52:24;;;;;;;5.43;3.17;;;;;;;16.33;52.87;99741.53;5078494;28;20405;-84
2022/04/26 05:54:51;;;;;;;4.28;2.47;;;;;;;16.64;52.28;99751.00;5113615;28;20455;-84
2022/04/26 05:57:18;;;;;;;5.05;3.00;;;;;;;16.62;51.52;99754.81;5113504;28;20096;-84
2022/04/26 05:59:44;;;;;;;7.07;2.78;;;;;;;16.63;51.78;99760.09;5078379;28;20040;-83
2022/04/26 06:02:13;;;;;;;7.88;2.78;;;;;;;16.71;51.52;99743.97;5078348;28;20044;-83
2022/04/26 06:04:39;;;;;;;5.78;2.80;;;;;;;16.60;51.72;99738.81;5095379;28;20065;-82
2022/04/26 06:07:05;;;;;;;7.22;3.30;;;;;;;16.62;51.86;99747.56;5094836;28;20032;-85
2022/04/26 06:09:31;;;;;;;11.13;4.38;;;;;;;16.82;51.82;99753.75;5061313;28;20123;-81
2022/04/26 06:11:58;;;;;;;8.32;5.15;;;;;;;16.93;51.55;99755.38;5113260;28;20039;-86
2022/04/26 06:14:24;;;;;;;23.52;6.25;;;;;;;17.01;51.71;99743.81;5061537;28;20031;-85
2022/04/26 06:16:50;;;;;;;16.63;6.18;;;;;;;17.04;51.97;99751.59;5061681;28;20047;-88
2022/04/26 06:19:16;;;;;;;14.73;6.68;;;;;;;17.06;51.88;99739.63;5094575;28;20402;-83
2022/04/26 06:21:42;;;;;;;10.48;6.72;;;;;;;17.16;52.25;99745.81;5113067;28;20455;-87
2022/04/26 06:24:08;;;;;;;11.82;6.75;;;;;;;17.50;51.49;99744.22;5077833;28;20189;-84
2022/04/26 06:26:34;;;;;;;10.35;7.15;;;;;;;17.45;51.52;99750.09;5094392;28;20082;-86
2022/04/26 06:29:00;;;;;;;12.05;7.50;;;;;;;17.45;51.27;99737.44;5094422;28;20044;-84
2022/04/26 06:31:26;;;;;;;10.15;6.85;;;;;;;17.56;51.47;99739.03;5094688;28;20067;-83
2022/04/26 06:33:51;;;;;;;15.32;7.13;;;;;;;17.65;51.41;99732.69;5112838;28;20555;-85
2022/04/26 06:36:17;;;;;;;12.23;6.63;;;;;;;17.85;51.03;99746.00;5078130;28;20108;-84
2022/04/26 06:38:43;;;;;;;18.27;6.57;;;;;;;18.01;50.65;99745.25;5061180;28;20143;-84
2022/04/26 06:41:09;;;;;;;16.67;6.50;;;;;;;17.96;50.68;99726.81;5078104;28;20031;-84
2022/04/26 06:43:36;;;;;;;19.95;6.78;;;;;;;17.82;51.26;99724.69;5094528;28;20043;-82
2022/04/26 06:46:02;;;;;;;19.63;6.22;;;;;;;18.05;50.82;99738.50;5112791;28;20082;-83
2022/04/26 06:48:28;;;;;;;16.83;6.30;;;;;;;18.35;51.07;99732.56;5077798;28;20075;-85
2022/04/26 06:50:57;;;;;;;11.48;5.18;;;;;;;18.56;49.87;99734.00;5078011;28;20035;-83
2022/04/26 06:53:23;;;;;;;17.58;5.28;;;;;;;18.63;49.73;99719.63;5112878;28;20035;-88
2022/04/26 06:55:49;;;;;;;14.45;6.10;;;;;;;18.93;49.58;99718.22;5077871;28;20043;-89
2022/04/26 06:58:15;;;;;;;24.80;6.25;;;;;;;19.14;48.67;99725.00;5112780;28;20046;-84
2022/04/26 07:00:41;;;;;;;17.02;6.22;;;;;;;19.22;48.93;99713.31;5113241;28;20039;-84
2022/04/26 07:03:07;;;;;;;14.07;6.47;;;;;;;19.16;48.22;99710.25;5061136;28;20518;-86
2022/04/26 07:05:34;;;;;;;12.80;7.30;;;;;;;19.21;49.01;99706.19;5094746;28;20047;-83
2022/04/26 07:08:00;;;;;;;14.50;6.03;;;;;;;19.40;48.71;99711.25;5113036;28;20079;-83
2022/04/26 07:10:28;;;;;;;10.65;5.85;;;;;;;19.70;48.60;99698.03;5105780;28;20063;-86
2022/04/26 07:12:55;;;;;;;27.90;6.20;;;;;;;19.97;47.72;99705.78;5094381;28;20077;-83
2022/04/26 07:15:21;;;;;;;9.70;5.93;;;;;;;20.11;47.25;99702.31;5093843;28;20482;-82
2022/04/26 07:17:47;;;;;;;12.85;5.75;;;;;;;20.10;47.01;99700.63;5098137;28;20054;-84
2022/04/26 07:20:13;;;;;;;13.82;5.90;;;;;;;20.14;47.45;99704.69;5101040;28;20510;-85
2022/04/26 07:22:39;;;;;;;17.23;6.00;;;;;;;20.30;46.96;99702.94;5082773;28;20138;-89
2022/04/26 07:25:06;;;;;;;11.27;5.70;;;;;;;20.22;47.10;99695.66;5098143;28;20046;-85
2022/04/26 07:27:32;;;;;;;12.00;5.65;;;;;;;20.42;47.21;99695.22;5115278;28;20046;-88
2022/04/26 07:29:58;;;;;;;12.13;5.95;;;;;;;20.79;46.62;99691.81;5133613;27;20071;-86
2022/04/26 07:34:20;;;;;;;9.65;5.90;;;;;;;21.19;45.78;99703.44;5064885;28;20109;-85
2022/04/26 07:35:11;;;;;;;15.38;5.82;;;;;;;21.40;45.25;99684.59;5081149;28;20130;-87
2022/04/26 07:37:41;;;;;;;9.65;5.47;;;;;;;21.38;44.03;99688.50;5098688;28;20123;-87
2022/04/26 07:40:08;;;;;;;13.25;5.80;;;;;;;21.24;44.81;99687.41;5081673;28;20055;-82
2022/04/26 07:42:34;;;;;;;15.40;6.28;;;;;;;21.35;45.21;99676.13;5081479;28;20390;-86
2022/04/26 07:45:00;;;;;;;12.73;6.13;;;;;;;21.43;44.73;99688.78;5081302;28;20050;-87
2022/04/26 07:47:26;;;;;;;9.38;5.38;;;;;;;21.61;44.72;99685.72;5097951;28;20051;-85
2022/04/26 07:49:54;;;;;;;9.55;5.60;;;;;;;21.96;43.89;99695.03;5097724;28;20040;-85
2022/04/26 07:52:23;;;;;;;15.70;5.22;;;;;;;22.05;43.28;99683.88;5097371;28;20047;-89
2022/04/26 07:54:50;;;;;;;13.05;5.55;;;;;;;22.05;43.12;99681.16;5081761;28;20509;-86
2022/04/26 07:57:16;;;;;;;33.53;4.75;;;;;;;22.16;43.17;99673.59;5066898;28;20047;-88
2022/04/26 07:59:42;;;;;;;17.55;5.70;;;;;;;22.27;43.32;99675.81;5117631;28;20039;-81
2022/04/26 08:02:10;;;;;;;20.73;5.10;;;;;;;22.61;42.68;99683.34;5082902;28;20043;-84
2022/04/26 08:04:36;;;;;;;14.82;4.82;;;;;;;22.88;42.08;99679.03;5065064;28;20126;-82
2022/04/26 08:07:03;;;;;;;13.90;4.50;;;;;;;22.91;41.77;99673.22;5097909;28;20089;-88
2022/04/26 08:09:29;;;;;;;10.35;3.90;;;;;;;23.40;41.07;99677.00;5097421;28;20448;-81
2022/04/26 08:11:55;;;;;;;13.55;4.82;;;;;;;23.34;40.43;99667.72;5097523;28;20043;-83
2022/04/26 08:14:21;;;;;;;5.80;4.20;;;;;;;23.23;40.43;99665.53;5077003;27;20502;-79
2022/04/26 08:16:47;;;;;;;13.80;4.32;;;;;;;23.21;40.61;99656.72;5135374;27;20355;-83
2022/04/26 08:19:13;;;;;;;12.02;4.97;;;;;;;23.13;40.97;99651.38;5083606;27;20053;-82
2022/04/26 08:21:39;;;;;;;9.80;4.15;;;;;;;23.09;40.84;99650.94;5119648;27;20043;-84
2022/04/26 08:29:34;;;;;;;6.25;3.90;;;;;;;22.78;40.89;99656.69;5117056;27;20039;-83
2022/04/26 08:32:00;;;;;;;9.00;4.80;;;;;;;22.79;41.06;99648.34;5116966;27;20046;-81
2022/04/26 08:34:27;;;;;;;11.60;4.13;;;;;;;23.01;40.86;99646.44;5082231;27;20443;-87
2022/04/26 08:36:53;;;;;;;19.10;4.63;;;;;;;23.52;40.37;99648.97;5084103;27;20043;-88
2022/04/26 08:39:21;;;;;;;10.35;4.20;;;;;;;23.96;39.67;99639.63;5100522;27;20091;-84
2022/04/26 08:41:47;;;;;;;7.15;3.80;;;;;;;24.39;38.71;99642.13;5083354;27;20047;-88
2022/04/26 08:44:13;;;;;;;9.93;3.30;;;;;;;24.43;38.10;99623.44;5105138;28;20092;-90
2022/04/26 08:52:09;;;;;;;12.93;3.80;;;;;;;24.73;36.92;99617.63;5114609;28;20387;-90
2022/04/26 08:54:35;;;;;;;4.38;3.10;;;;;;;24.65;37.20;99637.81;5096135;28;20123;-84
2022/04/26 08:57:01;;;;;;;7.93;3.30;;;;;;;24.54;37.23;99622.00;5114103;28;20040;-82
2022/04/26 08:59:28;;;;;;;7.07;2.83;;;;;;;24.66;36.75;99634.00;5113891;28;20058;-93
2022/04/26 09:02:23;;;;;;;13.30;3.60;;;;;;;24.85;36.56;99630.47;5062686;28;20082;-82
2022/04/26 09:04:50;;;;;;;10.20;3.05;;;;;;;24.86;35.80;99618.50;5079031;28;20043;-82
2022/04/26 09:07:33;;;;;;;29.40;3.20;;;;;;;24.48;35.54;99626.38;5095644;28;20399;-79
2022/04/26 09:10:19;;;;;;;4.95;2.40;;;;;;;24.32;34.85;99616.66;5095569;28;20070;-79
2022/04/26 09:13:07;;;;;;;5.05;2.40;;;;;;;24.04;35.14;99616.75;5095526;28;20046;-80
2022/04/26 09:15:34;;;;;;;9.23;2.72;;;;;;;23.98;34.72;99626.59;5095924;28;20040;-80
2022/04/26 09:18:13;;;;;;;11.50;2.17;;;;;;;23.70;33.80;99612.19;5078377;28;20138;-81
2022/04/26 09:20:39;;;;;;;6.97;1.63;;;;;;;23.50;33.00;99614.75;5078491;28;20138;-80
2022/04/26 09:23:17;;;;;;;6.07;1.63;;;;;;;23.50;32.94;99596.47;5113707;28;20122;-82
2022/04/26 09:25:43;;;;;;;3.88;1.58;;;;;;;23.73;33.16;99589.91;5071864;28;20067;-82
2022/04/26 09:28:20;;;;;;;8.38;1.60;;;;;;;23.84;31.98;99597.53;5109254;27;20100;-80
2022/04/26 09:30:47;;;;;;;7.68;1.42;;;;;;;23.73;32.08;99600.84;5099425;27;20031;-82
2022/04/26 09:33:51;;;;;;;7.53;1.40;;;;;;;23.92;31.84;99591.94;5115846;27;20095;-83
2022/04/26 09:36:19;;;;;;;5.30;1.50;;;;;;;24.55;30.92;99590.88;5099038;27;20455;-83
2022/04/26 09:38:53;;;;;;;5.53;1.40;;;;;;;25.19;29.45;99595.78;5115204;27;20049;-82
2022/04/26 09:41:20;;;;;;;4.55;1.73;;;;;;;25.84;29.33;99587.69;5082315;27;20035;-78
2022/04/26 09:44:15;;;;;;;7.63;1.83;;;;;;;25.99;29.57;99587.41;5134359;27;20454;-80
2022/04/26 09:46:44;;;;;;;6.15;1.35;;;;;;;25.61;28.79;99586.28;5081053;27;20045;-79
2022/04/26 09:49:14;;;;;;;7.03;2.03;;;;;;;26.03;28.28;99580.47;5115645;27;20043;-80
2022/04/26 09:51:41;;;;;;;6.00;1.65;;;;;;;26.43;27.10;99564.66;5095084;28;20036;-79
2022/04/26 09:54:07;;;;;;;7.40;1.70;;;;;;;26.34;27.53;99568.72;5113350;28;20039;-79
2022/04/26 09:56:34;;;;;;;3.78;1.30;;;;;;;26.68;26.11;99567.47;5113403;28;20047;-81
2022/04/26 09:59:02;;;;;;;2.20;1.33;;;;;;;26.70;25.86;99587.28;5078205;28;20061;-82
2022/04/26 10:01:47;;;;;;;3.90;1.40;;;;;;;26.35;25.88;99557.53;5127466;27;20043;-81
2022/04/26 10:04:17;;;;;;;4.10;1.60;;;;;;;26.19;26.93;99560.78;5115989;27;20047;-81
2022/04/26 10:06:46;;;;;;;2.17;1.42;;;;;;;26.78;27.14;99562.34;5134695;27;20043;-80
2022/04/26 10:09:13;;;;;;;6.32;1.85;;;;;;;27.76;25.77;99558.06;5098412;27;20039;-81
2022/04/26 10:11:39;;;;;;;3.35;1.48;;;;;;;28.00;24.66;99565.38;5098368;27;20146;-79
2022/04/26 10:14:10;;;;;;;4.07;1.27;;;;;;;27.97;24.68;99554.00;5096264;28;20036;-79
2022/04/26 10:16:38;;;;;;;5.57;1.30;;;;;;;27.55;24.26;99562.91;5118137;28;20057;-80
2022/04/26 10:19:13;;;;;;;5.93;1.50;;;;;;;27.78;24.61;99551.25;5081509;28;20138;-78
2022/04/26 10:21:38;;;;;;;3.63;1.48;;;;;;;28.70;24.15;99550.25;5083418;28;20036;-77
2022/04/26 10:24:10;;;;;;;2.35;1.10;;;;;;;29.13;23.00;99555.47;5077781;28;20047;-77
2022/04/26 10:26:36;;;;;;;14.32;1.75;;;;;;;28.33;22.95;99545.69;5078026;28;20502;-79
2022/04/26 10:29:12;;;;;;;3.13;1.10;;;;;;;27.36;23.91;99551.06;5077740;28;20039;-78
2022/04/26 10:31:42;;;;;;;2.88;0.98;;;;;;;26.95;24.18;99540.66;5113209;28;20036;-78
2022/04/26 10:34:27;;;;;;;3.08;1.30;;;;;;;26.61;24.42;99531.03;5077889;28;20044;-78
2022/04/26 10:36:55;;;;;;;4.60;1.38;;;;;;;27.70;23.84;99532.31;5113230;28;20043;-78
2022/04/26 10:39:35;;;;;;;7.43;1.65;;;;;;;28.64;22.66;99543.75;5061288;28;20047;-77
2022/04/26 10:42:06;;;;;;;14.40;1.60;;;;;;;28.11;22.75;99533.53;5089251;28;20031;-79
2022/04/26 10:44:37;;;;;;;2.47;1.10;;;;;;;27.50;23.42;99549.03;5133738;28;20133;-78
2022/04/26 10:47:03;;;;;;;8.43;1.27;;;;;;;26.90;23.78;99545.16;5114931;28;20047;-78
2022/04/26 10:49:32;;;;;;;2.97;1.30;;;;;;;27.27;23.98;99535.09;5133281;28;20101;-79
2022/04/26 10:52:22;;;;;;;8.77;1.33;;;;;;;28.62;22.21;99523.88;5133069;28;20039;-80
2022/04/26 10:54:48;;;;;;;9.35;1.38;;;;;;;28.51;21.31;99532.94;5114873;28;20043;-79
2022/04/26 10:57:22;;;;;;;6.20;1.40;;;;;;;27.56;22.31;99530.78;5081237;28;20066;-80
2022/04/26 11:00:09;;;;;;;7.05;1.50;;;;;;;26.75;23.13;99524.38;5133119;28;20049;-80
2022/04/26 11:02:43;;;;;;;2.85;1.13;;;;;;;26.58;23.79;99523.25;5077791;28;20379;-79
2022/04/26 11:05:18;;;;;;;4.28;1.40;;;;;;;26.91;23.50;99536.69;5097794;28;20143;-79
2022/04/26 11:07:48;;;;;;;2.35;1.10;;;;;;;26.98;23.93;99537.47;5115035;28;20531;-80
2022/04/26 11:10:20;;;;;;;6.88;1.10;;;;;;;26.91;23.07;99538.59;5106714;27;20147;-79
2022/04/26 11:12:46;;;;;;;8.98;1.35;;;;;;;26.44;23.57;99527.97;5084704;27;20050;-79
2022/04/26 11:15:15;;;;;;;7.13;1.30;;;;;;;25.96;24.09;99525.72;5137209;27;20039;-78
2022/04/26 11:17:41;;;;;;;;;;;;;;;25.46;24.77;99530.06;5137543;27;20558;-78
2022/04/26 11:20:16;;;;;;;7.28;1.30;;;;;;;25.30;24.55;99520.44;5118628;27;19973;-81
2022/04/26 11:22:50;;;;;;;4.57;1.15;;;;;;;25.47;25.05;99527.16;5101673;27;20042;-80
2022/04/26 11:28:09;;;;;;;5.60;1.67;;;;;;;25.17;25.12;99515.84;5136578;27;20039;-79
2022/04/26 11:30:41;;;;;;;7.22;2.00;;;;;;;25.39;25.00;99513.69;5136693;27;20062;-78
2022/04/26 11:33:25;;;;;;;3.97;1.27;;;;;;;24.80;25.14;99518.16;5118503;27;20099;-79
2022/04/26 11:36:02;;;;;;;4.05;1.33;;;;;;;24.93;25.56;99512.66;5101393;27;20420;-79
2022/04/26 11:38:28;;;;;;;3.35;1.40;;;;;;;25.56;25.28;99511.31;5084561;27;20047;-79
2022/04/26 11:41:00;;;;;;;7.18;1.33;;;;;;;26.55;24.54;99518.19;5118217;27;20035;-79
2022/04/26 11:43:31;;;;;;;2.83;1.55;;;;;;;26.57;23.29;99505.13;5117962;27;20401;-78
2022/04/26 11:45:58;;;;;;;12.15;1.58;;;;;;;27.25;23.06;99515.31;5083771;27;20039;-77
2022/04/26 11:48:30;;;;;;;7.60;1.20;;;;;;;27.01;23.17;99514.25;5100765;27;20170;-80
2022/04/26 11:50:58;;;;;;;9.05;1.48;;;;;;;26.55;23.10;99504.50;5118148;27;20083;-78
2022/04/26 11:53:30;;;;;;;4.32;1.88;;;;;;;26.13;23.58;99504.97;5117810;27;20508;-79
2022/04/26 11:55:56;;;;;;;10.52;1.70;;;;;;;25.74;24.20;99511.47;5117685;27;20062;-80
2022/04/26 11:58:32;;;;;;;11.93;1.90;;;;;;;25.52;24.74;99515.53;5136153;27;20119;-79
2022/04/26 12:01:06;;;;;;;2.70;1.40;;;;;;;25.43;24.62;99496.63;5136246;27;20050;-79
2022/04/26 12:03:51;;;;;;;5.35;1.50;;;;;;;25.28;24.56;99501.50;5101219;27;20043;-78
2022/04/26 12:06:27;;;;;;;6.47;1.70;;;;;;;25.39;24.46;99498.13;5117927;27;20043;-79
2022/04/26 12:09:19;;;;;;;4.82;2.08;;;;;;;25.26;25.09;99498.13;5096719;28;20067;-79
2022/04/26 12:11:59;;;;;;;7.82;1.70;;;;;;;25.51;24.57;99501.03;5077529;28;20043;-80
2022/04/26 12:14:25;;;;;;;3.97;1.30;;;;;;;25.52;24.42;99491.75;5080253;28;20040;-80
2022/04/26 12:16:55;;;;;;;18.08;1.40;;;;;;;25.72;24.50;99491.66;5079333;28;20036;-81
2022/04/26 12:19:37;;;;;;;5.13;1.40;;;;;;;28.09;22.66;99487.00;5096764;28;20132;-80
2022/04/26 12:22:04;;;;;;;7.35;1.42;;;;;;;29.61;20.52;99470.94;5096946;28;20406;-82
2022/04/26 12:24:32;;;;;;;7.45;1.30;;;;;;;30.62;19.96;99476.69;5096637;28;20432;-80
2022/04/26 12:26:58;;;;;;;5.93;1.67;;;;;;;31.62;18.45;99480.41;5079829;28;20044;-78
2022/04/26 12:29:37;;;;;;;7.68;1.67;;;;;;;32.09;17.83;99480.72;5063283;28;20142;-80
2022/04/26 12:32:12;;;;;;;6.57;1.45;;;;;;;31.41;17.95;99484.84;5063173;28;20096;-79
2022/04/26 12:34:49;;;;;;;9.27;1.60;;;;;;;31.34;18.21;99485.03;5063373;28;20063;-81
2022/04/26 12:37:16;;;;;;;3.78;1.20;;;;;;;32.59;17.37;99468.47;5079913;28;20043;-79
2022/04/26 12:39:53;;;;;;;8.07;2.28;;;;;;;33.32;16.79;99467.88;5096369;28;20048;-79
2022/04/26 12:42:31;;;;;;;14.55;1.60;;;;;;;33.85;16.11;99485.31;5096360;28;20062;-78
2022/04/26 12:45:03;;;;;;;9.50;1.42;;;;;;;34.25;15.69;99465.19;5096295;28;20059;-80
2022/04/26 12:50:33;;;;;;;8.07;2.03;;;;;;;35.19;14.79;99459.38;5079489;28;20081;-79
2022/04/26 12:53:08;;;;;;;7.72;1.58;;;;;;;35.11;14.84;99462.72;5062906;28;20451;-79
2022/04/26 12:55:40;;;;;;;3.67;1.38;;;;;;;35.14;14.56;99460.22;5114178;28;20047;-79
2022/04/26 12:58:11;;;;;;;14.95;1.60;;;;;;;34.32;14.69;99462.16;5114245;28;20050;-78
2022/04/26 13:00:50;;;;;;;15.95;2.03;;;;;;;33.60;15.39;99461.94;5114158;28;20165;-78
2022/04/26 13:03:17;;;;;;;5.28;1.30;;;;;;;33.81;15.29;99442.59;5096166;28;20509;-80
2022/04/26 13:05:46;;;;;;;9.68;1.35;;;;;;;34.44;15.08;99459.94;5096086;28;20046;-79
2022/04/26 13:08:14;;;;;;;8.18;1.95;;;;;;;34.73;14.58;99459.41;5078936;28;20498;-79
2022/04/26 13:10:41;;;;;;;21.83;1.80;;;;;;;33.77;15.20;99452.56;5079344;28;20079;-80
2022/04/26 13:13:08;;;;;;;10.70;1.80;;;;;;;32.92;15.83;99449.91;5062285;28;20116;-79
2022/04/26 13:15:35;;;;;;;7.93;1.40;;;;;;;33.25;16.10;99454.28;5113589;28;20044;-81
2022/04/26 13:18:03;;;;;;;6.75;1.50;;;;;;;32.82;15.58;99458.13;5062136;28;20116;-81
2022/04/26 13:20:30;;;;;;;2.75;1.33;;;;;;;30.99;17.30;99449.41;5095972;28;20142;-79
2022/04/26 13:22:56;;;;;;;7.88;1.40;;;;;;;30.03;18.40;99468.72;5113646;28;20067;-79
2022/04/26 13:25:22;;;;;;;8.38;1.83;;;;;;;31.09;17.43;99444.03;5114029;28;20082;-79
2022/04/26 13:27:48;;;;;;;5.10;1.50;;;;;;;30.32;17.58;99446.66;5112991;28;20077;-79
2022/04/26 13:30:15;;;;;;;7.95;1.50;;;;;;;29.20;18.50;99437.81;5113058;28;20497;-80
2022/04/26 13:32:41;;;;;;;5.15;1.70;;;;;;;28.20;19.85;99443.31;5113385;28;20043;-80
2022/04/26 13:35:08;;;;;;;6.43;1.77;;;;;;;28.74;19.68;99439.50;5112958;28;20406;-80
2022/04/26 13:37:34;;;;;;;2.88;1.50;;;;;;;29.97;18.74;99458.66;5095303;28;20039;-83
2022/04/26 13:40:04;;;;;;;2.75;1.70;;;;;;;29.36;18.76;99446.41;5095517;28;20439;-80
2022/04/26 13:42:35;;;;;;;9.38;1.40;;;;;;;27.94;19.96;99439.88;5095045;28;20503;-81
2022/04/26 13:45:01;;;;;;;8.80;1.50;;;;;;;27.47;20.67;99438.84;5078864;28;20051;-80
2022/04/26 13:47:30;;;;;;;8.20;1.73;;;;;;;26.90;21.26;99443.66;5113272;28;20054;-80
2022/04/26 13:49:56;;;;;;;10.98;1.85;;;;;;;27.54;20.94;99436.84;5113653;28;20035;-79
2022/04/26 13:52:22;;;;;;;8.05;1.90;;;;;;;27.79;20.72;99433.97;5113441;28;20050;-80
2022/04/26 13:54:49;;;;;;;6.00;1.55;;;;;;;28.01;20.60;99424.16;5094853;28;20409;-79
2022/04/26 13:57:15;;;;;;;7.45;2.00;;;;;;;29.11;19.47;99432.91;5094730;28;20486;-79
2022/04/26 13:59:41;;;;;;;13.00;1.73;;;;;;;30.05;18.72;99432.63;5077576;28;20119;-80
2022/04/26 14:02:08;;;;;;;7.78;1.40;;;;;;;30.69;17.59;99434.06;5077609;28;20058;-80
2022/04/26 14:04:34;;;;;;;7.07;1.20;;;;;;;31.36;17.61;99435.88;5094866;28;20107;-80
2022/04/26 14:07:01;;;;;;;5.38;1.70;;;;;;;32.33;16.87;99425.06;5112892;28;20047;-81
2022/04/26 14:09:27;;;;;;;5.05;1.60;;;;;;;32.59;16.06;99417.81;5077801;28;20593;-80
2022/04/26 14:11:55;;;;;;;4.43;1.33;;;;;;;32.60;16.46;99430.56;5077881;28;20512;-78
2022/04/26 14:22:41;;;;;;;5.53;1.50;;;;;;;32.78;15.89;99415.47;5095318;28;20444;-82
2022/04/26 14:25:09;;;;;;;4.85;1.38;;;;;;;32.58;16.13;99411.47;5095363;28;20043;-83
2022/04/26 14:27:37;;;;;;;4.47;1.38;;;;;;;32.40;15.85;99414.63;5094793;28;20039;-81
2022/04/26 14:30:08;;;;;;;7.47;2.00;;;;;;;32.34;15.98;99404.59;5061231;28;20044;-82
2022/04/26 14:32:35;;;;;;;7.13;1.48;;;;;;;32.20;16.30;99411.66;5094830;28;20134;-81
2022/04/26 14:35:01;;;;;;;7.32;1.60;;;;;;;31.49;16.80;99415.31;5078319;28;20035;-79
2022/04/26 14:37:28;;;;;;;5.05;1.13;;;;;;;31.26;16.92;99404.50;5095136;28;20050;-82
2022/04/26 14:39:54;;;;;;;2.45;1.55;;;;;;;30.89;17.00;99419.75;5098506;28;20386;-83
2022/04/26 14:42:21;;;;;;;9.90;1.60;;;;;;;30.75;17.20;99403.78;5081996;28;20040;-83
2022/04/26 14:44:47;;;;;;;4.45;1.80;;;;;;;30.43;18.07;99401.63;5117129;28;20047;-82
2022/04/26 14:47:14;;;;;;;4.22;1.48;;;;;;;30.39;18.18;99411.47;5098801;28;20074;-82
2022/04/26 14:49:40;;;;;;;4.75;1.50;;;;;;;30.10;17.88;99408.75;5081647;28;20039;-82
2022/04/26 14:52:09;;;;;;;6.30;2.15;;;;;;;29.93;18.47;99405.13;5117292;28;20447;-81
2022/04/26 14:54:35;;;;;;;6.85;2.17;;;;;;;29.81;18.49;99396.09;5117201;28;20131;-81
2022/04/26 14:57:01;;;;;;;7.35;1.60;;;;;;;29.71;18.33;99408.59;5117261;28;20040;-81
2022/04/26 14:59:28;;;;;;;4.28;1.48;;;;;;;29.38;18.68;99405.69;5117095;28;20047;-81
2022/04/26 15:01:54;;;;;;;9.40;1.80;;;;;;;28.96;18.85;99397.59;5081121;28;20075;-81
2022/04/26 15:04:22;;;;;;;11.40;1.70;;;;;;;28.38;19.75;99388.28;5116604;28;20478;-82
2022/04/26 15:06:48;;;;;;;10.52;1.77;;;;;;;27.78;20.49;99397.44;5064792;28;20043;-80
2022/04/26 15:17:30;;;;;;;15.70;2.40;;;;;;;24.49;23.14;99393.09;5099275;28;20075;-81
2022/04/26 15:19:57;;;;;;;8.68;2.58;;;;;;;23.95;23.95;99402.28;5098122;28;20075;-82
2022/04/26 15:22:24;;;;;;;8.55;2.60;;;;;;;23.43;24.42;99401.94;5081111;28;20062;-88
2022/04/26 15:24:53;;;;;;;20.15;2.40;;;;;;;22.96;25.39;99406.31;5098362;28;20055;-83
2022/04/26 15:27:20;;;;;;;13.75;2.38;;;;;;;22.50;26.07;99406.81;5118508;28;20442;-86
2022/04/26 15:29:47;;;;;;;10.75;2.05;;;;;;;22.10;26.63;99410.22;5101850;28;20070;-85
2022/04/26 15:32:14;;;;;;;7.05;2.20;;;;;;;21.77;26.96;99408.00;5099282;28;20085;-87
2022/04/26 15:34:40;;;;;;;12.60;4.03;;;;;;;21.48;27.85;99404.38;5099372;28;20043;-87
2022/04/26 15:37:06;;;;;;;8.52;2.28;;;;;;;21.19;27.96;99407.13;5096955;28;20067;-79
2022/04/26 15:39:33;;;;;;;11.98;2.22;;;;;;;20.91;28.44;99402.38;5115540;28;20516;-81
2022/04/26 15:42:00;;;;;;;7.28;2.33;;;;;;;20.74;28.46;99412.56;5115352;28;20039;-79
2022/04/26 15:44:27;;;;;;;4.90;2.28;;;;;;;20.49;29.17;99392.09;5115245;28;20138;-87
2022/04/26 15:46:56;;;;;;;6.07;2.63;;;;;;;20.37;29.10;99405.25;5097159;28;20074;-80
2022/04/26 15:49:27;;;;;;;11.82;3.00;;;;;;;20.12;29.51;99402.78;5097633;28;20084;-91